EXS72BQ LTBS-EGNT
Flight info
| Callsign | EXS72BQ |
|---|---|
| Flight time | 4h 37m |
| Altitude | 34000 |
| Route | KEKIK UT476 YOYYO UN618 IMR UN128 RIKSO DCT LMO DCT EVIVI DCT OKANA DCT IRGOR DCT TONDO DCT BEGLA DCT FMD DCT DITIS DCT VARIK/N0445F360 DCT KATCE DCT RKN DCT PREXA L602 NALAX L46 RIMTO |
| Aircraft | B738/M-VGDW/C |
Departure
| Time | 2026-05-07 11:22 |
|---|---|
| Airport | Dalaman International Airport (LTBS) |
Arrival
| Time | 2026-05-07 15:59 |
|---|---|
| Airport | Newcastle International Airport (EGNT) |
| Time | Latitude | Longitude | Altitude | Speed | Heading |
|---|---|---|---|---|---|
| 2026-05-07 10:39 | 36.72274 | 28.79069 | 28 ft | 0 kts | 286° |
| 2026-05-07 11:13 | 36.72270 | 28.79086 | 28 ft | 2 kts | 286° |
| 2026-05-07 11:13 | 36.72266 | 28.79104 | 28 ft | 2 kts | 286° |
| 2026-05-07 11:13 | 36.72260 | 28.79122 | 28 ft | 2 kts | 309° |
| 2026-05-07 11:14 | 36.72249 | 28.79134 | 28 ft | 2 kts | 336° |
| 2026-05-07 11:14 | 36.72234 | 28.79138 | 28 ft | 2 kts | 3° |
| 2026-05-07 11:14 | 36.72226 | 28.79137 | 28 ft | 1 kts | 20° |
| 2026-05-07 11:14 | 36.72221 | 28.79135 | 28 ft | 0 kts | 16° |
| 2026-05-07 11:16 | 36.72223 | 28.79135 | 28 ft | 0 kts | 16° |
| 2026-05-07 11:17 | 36.72230 | 28.79138 | 28 ft | 1 kts | 15° |
| 2026-05-07 11:17 | 36.72250 | 28.79144 | 28 ft | 3 kts | 15° |
| 2026-05-07 11:17 | 36.72280 | 28.79155 | 28 ft | 5 kts | 18° |
| 2026-05-07 11:17 | 36.72303 | 28.79191 | 28 ft | 6 kts | 86° |
| 2026-05-07 11:18 | 36.72293 | 28.79248 | 28 ft | 7 kts | 106° |
| 2026-05-07 11:18 | 36.72278 | 28.79314 | 28 ft | 8 kts | 105° |
| 2026-05-07 11:18 | 36.72303 | 28.79376 | 28 ft | 9 kts | 21° |
| 2026-05-07 11:18 | 36.72371 | 28.79399 | 28 ft | 11 kts | 16° |
| 2026-05-07 11:19 | 36.72450 | 28.79427 | 28 ft | 12 kts | 15° |
| 2026-05-07 11:19 | 36.72538 | 28.79456 | 28 ft | 13 kts | 15° |
| 2026-05-07 11:19 | 36.72613 | 28.79485 | 28 ft | 8 kts | 30° |
| 2026-05-07 11:19 | 36.72639 | 28.79537 | 28 ft | 5 kts | 83° |
| 2026-05-07 11:20 | 36.72636 | 28.79586 | 28 ft | 6 kts | 107° |
| 2026-05-07 11:20 | 36.72613 | 28.79643 | 28 ft | 6 kts | 117° |
| 2026-05-07 11:20 | 36.72597 | 28.79674 | 28 ft | 3 kts | 140° |
| 2026-05-07 11:20 | 36.72568 | 28.79679 | 28 ft | 4 kts | 194° |
| 2026-05-07 11:21 | 36.72422 | 28.79629 | 28 ft | 51 kts | 195° |
| 2026-05-07 11:21 | 36.71871 | 28.79442 | 28 ft | 109 kts | 196° |
| 2026-05-07 11:21 | 36.70963 | 28.79134 | 28 ft | 157 kts | 195° |
| 2026-05-07 11:21 | 36.69801 | 28.78743 | 275 ft | 174 kts | 195° |
| 2026-05-07 11:22 | 36.68603 | 28.78355 | 822 ft | 176 kts | 195° |
| 2026-05-07 11:22 | 36.67409 | 28.77961 | 1367 ft | 179 kts | 196° |
| 2026-05-07 11:22 | 36.66141 | 28.77513 | 1701 ft | 194 kts | 197° |
| 2026-05-07 11:22 | 36.64772 | 28.76972 | 1924 ft | 215 kts | 202° |
| 2026-05-07 11:23 | 36.63443 | 28.75973 | 2293 ft | 229 kts | 224° |
| 2026-05-07 11:23 | 36.62579 | 28.74183 | 2596 ft | 250 kts | 257° |
| 2026-05-07 11:23 | 36.62609 | 28.71993 | 3227 ft | 257 kts | 280° |
| 2026-05-07 11:23 | 36.63113 | 28.69821 | 3858 ft | 263 kts | 286° |
| 2026-05-07 11:24 | 36.63712 | 28.67641 | 4527 ft | 265 kts | 285° |
| 2026-05-07 11:24 | 36.64270 | 28.65441 | 5193 ft | 266 kts | 284° |
| 2026-05-07 11:24 | 36.64794 | 28.63200 | 5858 ft | 267 kts | 283° |
| 2026-05-07 11:24 | 36.65430 | 28.60983 | 6501 ft | 272 kts | 295° |
| 2026-05-07 11:25 | 36.66545 | 28.59027 | 7138 ft | 278 kts | 311° |
| 2026-05-07 11:25 | 36.67987 | 28.57417 | 7800 ft | 281 kts | 318° |
| 2026-05-07 11:25 | 36.69558 | 28.55899 | 8435 ft | 284 kts | 319° |
| 2026-05-07 11:25 | 36.71124 | 28.54402 | 9084 ft | 285 kts | 319° |
| 2026-05-07 11:26 | 36.72716 | 28.52852 | 9727 ft | 287 kts | 319° |
| 2026-05-07 11:26 | 36.74305 | 28.51283 | 10310 ft | 291 kts | 318° |
| 2026-05-07 11:26 | 36.75949 | 28.49643 | 10413 ft | 314 kts | 319° |
| 2026-05-07 11:26 | 36.77847 | 28.48017 | 10613 ft | 335 kts | 330° |
| 2026-05-07 11:27 | 36.80031 | 28.46930 | 11250 ft | 341 kts | 339° |
| 2026-05-07 11:27 | 36.82339 | 28.46042 | 11860 ft | 347 kts | 341° |
| 2026-05-07 11:27 | 36.84668 | 28.45202 | 12514 ft | 350 kts | 341° |
| 2026-05-07 11:27 | 36.87014 | 28.44360 | 13162 ft | 353 kts | 341° |
| 2026-05-07 11:28 | 36.89386 | 28.43504 | 13818 ft | 356 kts | 341° |
| 2026-05-07 11:28 | 36.91820 | 28.42623 | 14475 ft | 359 kts | 341° |
| 2026-05-07 11:28 | 36.94230 | 28.41747 | 15117 ft | 363 kts | 341° |
| 2026-05-07 11:28 | 36.96695 | 28.40850 | 15765 ft | 366 kts | 341° |
| 2026-05-07 11:29 | 36.99144 | 28.39958 | 16381 ft | 369 kts | 341° |
| 2026-05-07 11:29 | 37.01660 | 28.39040 | 17000 ft | 372 kts | 341° |
| 2026-05-07 11:29 | 37.04092 | 28.37932 | 17574 ft | 373 kts | 332° |
| 2026-05-07 11:29 | 37.06340 | 28.36241 | 18146 ft | 372 kts | 319° |
| 2026-05-07 11:30 | 37.08111 | 28.33916 | 18671 ft | 370 kts | 300° |
| 2026-05-07 11:30 | 37.09295 | 28.31010 | 19302 ft | 368 kts | 290° |
| 2026-05-07 11:30 | 37.10195 | 28.27943 | 19793 ft | 372 kts | 287° |
| 2026-05-07 11:30 | 37.11018 | 28.24854 | 20329 ft | 375 kts | 286° |
| 2026-05-07 11:31 | 37.11835 | 28.21726 | 20848 ft | 378 kts | 286° |
| 2026-05-07 11:31 | 37.12672 | 28.18514 | 21361 ft | 381 kts | 286° |
| 2026-05-07 11:31 | 37.13499 | 28.15342 | 21861 ft | 384 kts | 286° |
| 2026-05-07 11:31 | 37.14343 | 28.12101 | 22354 ft | 387 kts | 286° |
| 2026-05-07 11:32 | 37.16026 | 28.05642 | 23293 ft | 392 kts | 286° |
| 2026-05-07 11:32 | 37.16891 | 28.02318 | 23764 ft | 395 kts | 286° |
| 2026-05-07 11:32 | 37.17747 | 27.99026 | 24215 ft | 397 kts | 286° |
| 2026-05-07 11:33 | 37.18618 | 27.95671 | 24666 ft | 400 kts | 286° |
| 2026-05-07 11:33 | 37.19482 | 27.92342 | 25093 ft | 402 kts | 286° |
| 2026-05-07 11:33 | 37.20366 | 27.88932 | 25527 ft | 405 kts | 286° |
| 2026-05-07 11:33 | 37.21238 | 27.85561 | 25942 ft | 407 kts | 286° |
| 2026-05-07 11:34 | 37.22127 | 27.82121 | 26341 ft | 409 kts | 286° |
| 2026-05-07 11:34 | 37.23009 | 27.78704 | 26739 ft | 411 kts | 286° |
| 2026-05-07 11:34 | 37.23893 | 27.75275 | 27106 ft | 414 kts | 286° |
| 2026-05-07 11:34 | 37.24797 | 27.71762 | 27487 ft | 416 kts | 286° |
| 2026-05-07 11:35 | 37.25715 | 27.68307 | 27832 ft | 419 kts | 289° |
| 2026-05-07 11:35 | 37.26879 | 27.64881 | 28180 ft | 423 kts | 295° |
| 2026-05-07 11:35 | 37.28363 | 27.61669 | 28511 ft | 427 kts | 302° |
| 2026-05-07 11:35 | 37.30272 | 27.58702 | 28834 ft | 432 kts | 311° |
| 2026-05-07 11:36 | 37.32623 | 27.56295 | 29098 ft | 440 kts | 325° |
| 2026-05-07 11:36 | 37.35292 | 27.54408 | 29481 ft | 442 kts | 330° |
| 2026-05-07 11:36 | 37.38120 | 27.52693 | 29696 ft | 447 kts | 332° |
| 2026-05-07 11:36 | 37.40963 | 27.51076 | 30003 ft | 449 kts | 333° |
| 2026-05-07 11:37 | 37.43885 | 27.49460 | 30302 ft | 451 kts | 333° |
| 2026-05-07 11:37 | 37.46775 | 27.47888 | 30572 ft | 453 kts | 334° |
| 2026-05-07 11:37 | 37.49687 | 27.46319 | 30848 ft | 455 kts | 334° |
| 2026-05-07 11:37 | 37.52615 | 27.44676 | 31109 ft | 456 kts | 332° |
| 2026-05-07 11:38 | 37.55508 | 27.42995 | 31364 ft | 458 kts | 332° |
| 2026-05-07 11:38 | 37.58418 | 27.41299 | 31672 ft | 458 kts | 332° |
| 2026-05-07 11:38 | 37.61315 | 27.39615 | 31981 ft | 458 kts | 332° |
| 2026-05-07 11:38 | 37.64270 | 27.37921 | 32309 ft | 457 kts | 333° |
| 2026-05-07 11:39 | 37.67187 | 27.36310 | 32615 ft | 457 kts | 333° |
| 2026-05-07 11:39 | 37.70104 | 27.34714 | 32917 ft | 456 kts | 333° |
| 2026-05-07 11:39 | 37.73023 | 27.33118 | 33226 ft | 455 kts | 333° |
| 2026-05-07 11:39 | 37.75940 | 27.31522 | 33496 ft | 454 kts | 333° |
| 2026-05-07 11:40 | 37.78881 | 27.29912 | 33766 ft | 453 kts | 333° |
| 2026-05-07 11:40 | 37.81772 | 27.28328 | 34029 ft | 452 kts | 333° |
| 2026-05-07 11:40 | 37.84666 | 27.26740 | 34138 ft | 454 kts | 333° |
| 2026-05-07 11:41 | 37.90505 | 27.23532 | 34131 ft | 450 kts | 333° |
| 2026-05-07 11:41 | 37.96257 | 27.20367 | 34128 ft | 449 kts | 333° |
| 2026-05-07 11:42 | 38.02026 | 27.17186 | 34128 ft | 450 kts | 333° |
| 2026-05-07 11:42 | 38.07803 | 27.13997 | 34128 ft | 450 kts | 333° |
| 2026-05-07 11:43 | 38.13552 | 27.10818 | 34128 ft | 450 kts | 333° |
| 2026-05-07 11:43 | 38.19320 | 27.07622 | 34128 ft | 450 kts | 333° |
| 2026-05-07 11:44 | 38.25087 | 27.04421 | 34128 ft | 449 kts | 333° |
| 2026-05-07 11:44 | 38.30679 | 27.00859 | 34128 ft | 445 kts | 326° |
| 2026-05-07 11:45 | 38.35650 | 26.96194 | 34131 ft | 441 kts | 317° |
| 2026-05-07 11:45 | 38.40313 | 26.91162 | 34128 ft | 440 kts | 316° |
| 2026-05-07 11:46 | 38.45005 | 26.86022 | 34129 ft | 439 kts | 316° |
| 2026-05-07 11:46 | 38.49634 | 26.80918 | 34134 ft | 439 kts | 316° |
| 2026-05-07 11:47 | 38.54296 | 26.75757 | 34140 ft | 439 kts | 316° |
| 2026-05-07 11:47 | 38.58954 | 26.70584 | 34147 ft | 439 kts | 316° |
| 2026-05-07 11:48 | 38.63568 | 26.65448 | 34153 ft | 439 kts | 316° |
| 2026-05-07 11:48 | 38.68218 | 26.60261 | 34155 ft | 439 kts | 316° |
| 2026-05-07 11:49 | 38.72853 | 26.55080 | 34155 ft | 439 kts | 316° |
| 2026-05-07 11:49 | 38.77495 | 26.49882 | 34155 ft | 439 kts | 316° |
| 2026-05-07 11:50 | 38.82132 | 26.44681 | 34155 ft | 439 kts | 316° |
| 2026-05-07 11:50 | 38.86819 | 26.39535 | 34155 ft | 440 kts | 317° |
| 2026-05-07 11:51 | 38.91540 | 26.34448 | 34155 ft | 439 kts | 317° |
| 2026-05-07 11:51 | 38.96257 | 26.29350 | 34155 ft | 438 kts | 317° |
| 2026-05-07 11:52 | 39.00943 | 26.24271 | 34155 ft | 437 kts | 317° |
| 2026-05-07 11:52 | 39.05621 | 26.19191 | 34155 ft | 437 kts | 317° |
| 2026-05-07 11:53 | 39.10298 | 26.14100 | 34155 ft | 437 kts | 317° |
| 2026-05-07 11:53 | 39.14973 | 26.09003 | 34155 ft | 437 kts | 317° |
| 2026-05-07 11:54 | 39.19683 | 26.03859 | 34155 ft | 437 kts | 317° |
| 2026-05-07 11:54 | 39.24352 | 25.98750 | 34155 ft | 437 kts | 317° |
| 2026-05-07 11:55 | 39.29015 | 25.93638 | 34155 ft | 437 kts | 317° |
| 2026-05-07 11:55 | 39.33715 | 25.88476 | 34152 ft | 437 kts | 317° |
| 2026-05-07 11:56 | 39.38370 | 25.83354 | 34145 ft | 437 kts | 317° |
| 2026-05-07 11:56 | 39.43036 | 25.78212 | 34136 ft | 437 kts | 317° |
| 2026-05-07 11:57 | 39.47682 | 25.73081 | 34130 ft | 436 kts | 317° |
| 2026-05-07 11:57 | 39.52367 | 25.67897 | 34128 ft | 436 kts | 317° |
| 2026-05-07 11:58 | 39.57008 | 25.62754 | 34128 ft | 436 kts | 317° |
| 2026-05-07 11:58 | 39.61691 | 25.57554 | 34128 ft | 436 kts | 317° |
| 2026-05-07 11:59 | 39.66338 | 25.52386 | 34128 ft | 436 kts | 317° |
| 2026-05-07 11:59 | 39.70974 | 25.47219 | 34128 ft | 437 kts | 317° |
| 2026-05-07 12:00 | 39.75624 | 25.42027 | 34128 ft | 437 kts | 317° |
| 2026-05-07 12:00 | 39.80260 | 25.36842 | 34128 ft | 436 kts | 317° |
| 2026-05-07 12:01 | 39.84902 | 25.31639 | 34128 ft | 436 kts | 316° |
| 2026-05-07 12:01 | 39.89510 | 25.26394 | 34128 ft | 436 kts | 315° |
| 2026-05-07 12:02 | 39.94020 | 25.21131 | 34128 ft | 436 kts | 315° |
| 2026-05-07 12:02 | 39.98607 | 25.15771 | 34128 ft | 436 kts | 315° |
| 2026-05-07 12:03 | 40.03161 | 25.10447 | 34128 ft | 437 kts | 315° |
| 2026-05-07 12:03 | 40.07747 | 25.05079 | 34128 ft | 439 kts | 315° |
| 2026-05-07 12:04 | 40.12356 | 24.99677 | 34128 ft | 441 kts | 314° |
| 2026-05-07 12:04 | 40.16970 | 24.94260 | 34128 ft | 443 kts | 314° |
| 2026-05-07 12:05 | 40.21571 | 24.88849 | 34126 ft | 443 kts | 314° |
| 2026-05-07 12:05 | 40.26192 | 24.83405 | 34121 ft | 443 kts | 314° |
| 2026-05-07 12:06 | 40.30817 | 24.77946 | 34112 ft | 443 kts | 314° |
| 2026-05-07 12:06 | 40.35400 | 24.72524 | 34103 ft | 443 kts | 314° |
| 2026-05-07 12:07 | 40.39992 | 24.67082 | 34101 ft | 443 kts | 314° |
| 2026-05-07 12:07 | 40.44556 | 24.61664 | 34101 ft | 443 kts | 314° |
| 2026-05-07 12:08 | 40.49154 | 24.56195 | 34101 ft | 443 kts | 314° |
| 2026-05-07 12:08 | 40.53740 | 24.50729 | 34101 ft | 443 kts | 314° |
| 2026-05-07 12:09 | 40.58321 | 24.45259 | 34101 ft | 443 kts | 314° |
| 2026-05-07 12:09 | 40.62897 | 24.39783 | 34101 ft | 443 kts | 314° |
| 2026-05-07 12:10 | 40.67471 | 24.34301 | 34101 ft | 443 kts | 313° |
| 2026-05-07 12:10 | 40.72057 | 24.28791 | 34101 ft | 443 kts | 313° |
| 2026-05-07 12:11 | 40.76612 | 24.23308 | 34101 ft | 443 kts | 313° |
| 2026-05-07 12:11 | 40.81195 | 24.17780 | 34101 ft | 443 kts | 313° |
| 2026-05-07 12:12 | 40.85746 | 24.12281 | 34101 ft | 442 kts | 313° |
| 2026-05-07 12:12 | 40.90290 | 24.06780 | 34101 ft | 443 kts | 313° |
| 2026-05-07 12:13 | 40.94859 | 24.01238 | 34101 ft | 443 kts | 313° |
| 2026-05-07 12:13 | 40.99418 | 23.95699 | 34101 ft | 441 kts | 314° |
| 2026-05-07 12:14 | 41.03934 | 23.90203 | 34101 ft | 438 kts | 314° |
| 2026-05-07 12:14 | 41.08426 | 23.84724 | 34101 ft | 436 kts | 314° |
| 2026-05-07 12:15 | 41.12913 | 23.79242 | 34100 ft | 435 kts | 315° |
| 2026-05-07 12:15 | 41.17377 | 23.73775 | 34104 ft | 434 kts | 314° |
| 2026-05-07 12:16 | 41.21825 | 23.68317 | 34115 ft | 433 kts | 314° |
| 2026-05-07 12:16 | 41.26277 | 23.62844 | 34129 ft | 434 kts | 314° |
| 2026-05-07 12:17 | 41.30747 | 23.57335 | 34139 ft | 434 kts | 315° |
| 2026-05-07 12:17 | 41.35177 | 23.51870 | 34152 ft | 433 kts | 314° |
| 2026-05-07 12:18 | 41.39838 | 23.46695 | 34157 ft | 440 kts | 321° |
| 2026-05-07 12:18 | 41.45189 | 23.42526 | 34155 ft | 443 kts | 330° |
| 2026-05-07 12:19 | 41.50709 | 23.38832 | 34137 ft | 439 kts | 330° |
| 2026-05-07 12:19 | 41.56209 | 23.35211 | 34118 ft | 441 kts | 330° |
| 2026-05-07 12:20 | 41.61739 | 23.31576 | 34102 ft | 442 kts | 330° |
| 2026-05-07 12:20 | 41.67288 | 23.27929 | 34100 ft | 442 kts | 330° |
| 2026-05-07 12:21 | 41.72861 | 23.24265 | 34103 ft | 443 kts | 330° |
| 2026-05-07 12:21 | 41.78388 | 23.20622 | 34101 ft | 441 kts | 330° |
| 2026-05-07 12:22 | 41.83933 | 23.16967 | 34101 ft | 441 kts | 330° |
| 2026-05-07 12:22 | 41.89463 | 23.13312 | 34101 ft | 440 kts | 330° |
| 2026-05-07 12:23 | 41.94960 | 23.09671 | 34101 ft | 442 kts | 330° |
| 2026-05-07 12:23 | 42.00509 | 23.05991 | 34100 ft | 442 kts | 330° |
| 2026-05-07 12:24 | 42.06043 | 23.02318 | 34100 ft | 441 kts | 330° |
| 2026-05-07 12:24 | 42.11562 | 22.98644 | 34101 ft | 441 kts | 330° |
| 2026-05-07 12:25 | 42.17061 | 22.94977 | 34102 ft | 440 kts | 330° |
| 2026-05-07 12:25 | 42.22589 | 22.91283 | 34100 ft | 438 kts | 331° |
| 2026-05-07 12:26 | 42.28066 | 22.87621 | 34102 ft | 438 kts | 331° |
| 2026-05-07 12:26 | 42.33553 | 22.83937 | 34100 ft | 438 kts | 331° |
| 2026-05-07 12:27 | 42.39056 | 22.80236 | 34101 ft | 439 kts | 332° |
| 2026-05-07 12:27 | 42.44546 | 22.76535 | 34100 ft | 437 kts | 332° |
| 2026-05-07 12:28 | 42.49972 | 22.72875 | 34101 ft | 436 kts | 332° |
| 2026-05-07 12:28 | 42.55458 | 22.69165 | 34102 ft | 436 kts | 332° |
| 2026-05-07 12:29 | 42.60906 | 22.65474 | 34101 ft | 438 kts | 332° |
| 2026-05-07 12:29 | 42.66379 | 22.61761 | 34100 ft | 437 kts | 332° |
| 2026-05-07 12:30 | 42.71842 | 22.58046 | 34101 ft | 437 kts | 332° |
| 2026-05-07 12:30 | 42.77269 | 22.54347 | 34100 ft | 436 kts | 332° |
| 2026-05-07 12:31 | 42.82706 | 22.50632 | 34101 ft | 436 kts | 332° |
| 2026-05-07 12:31 | 42.87990 | 22.46365 | 34102 ft | 436 kts | 326° |
| 2026-05-07 12:32 | 42.93095 | 22.41863 | 34101 ft | 435 kts | 326° |
| 2026-05-07 12:32 | 42.98185 | 22.37357 | 34101 ft | 435 kts | 326° |
| 2026-05-07 12:33 | 43.05852 | 22.30551 | 34102 ft | 437 kts | 325° |
| 2026-05-07 12:33 | 43.10988 | 22.25984 | 34100 ft | 435 kts | 325° |
| 2026-05-07 12:34 | 43.16077 | 22.21451 | 34100 ft | 435 kts | 325° |
| 2026-05-07 12:34 | 43.21181 | 22.16894 | 34101 ft | 436 kts | 325° |
| 2026-05-07 12:35 | 43.26242 | 22.12371 | 34101 ft | 435 kts | 326° |
| 2026-05-07 12:35 | 43.31356 | 22.07785 | 34101 ft | 436 kts | 325° |
| 2026-05-07 12:36 | 43.36488 | 22.03176 | 34101 ft | 436 kts | 326° |
| 2026-05-07 12:36 | 43.41551 | 21.98620 | 34102 ft | 436 kts | 325° |
| 2026-05-07 12:37 | 43.46666 | 21.94004 | 34101 ft | 436 kts | 325° |
| 2026-05-07 12:37 | 43.51759 | 21.89403 | 34102 ft | 436 kts | 326° |
| 2026-05-07 12:38 | 43.56871 | 21.84776 | 34102 ft | 438 kts | 325° |
| 2026-05-07 12:38 | 43.62003 | 21.80119 | 34101 ft | 438 kts | 326° |
| 2026-05-07 12:39 | 43.67083 | 21.75501 | 34100 ft | 437 kts | 325° |
| 2026-05-07 12:39 | 43.72198 | 21.70840 | 34100 ft | 437 kts | 325° |
| 2026-05-07 12:40 | 43.77296 | 21.66189 | 34101 ft | 435 kts | 326° |
| 2026-05-07 12:40 | 43.82362 | 21.61556 | 34102 ft | 436 kts | 325° |
| 2026-05-07 12:41 | 43.87435 | 21.56906 | 34100 ft | 437 kts | 325° |
| 2026-05-07 12:41 | 43.92531 | 21.52225 | 34094 ft | 436 kts | 325° |
| 2026-05-07 12:42 | 43.97619 | 21.47541 | 34081 ft | 437 kts | 326° |
| 2026-05-07 12:42 | 44.02739 | 21.42816 | 34064 ft | 436 kts | 325° |
| 2026-05-07 12:43 | 44.07800 | 21.38143 | 34054 ft | 433 kts | 325° |
| 2026-05-07 12:43 | 44.12864 | 21.33451 | 34047 ft | 436 kts | 325° |
| 2026-05-07 12:44 | 44.17967 | 21.28712 | 34046 ft | 436 kts | 324° |
| 2026-05-07 12:44 | 44.23036 | 21.23993 | 34042 ft | 436 kts | 325° |
| 2026-05-07 12:45 | 44.28094 | 21.19277 | 34040 ft | 436 kts | 325° |
| 2026-05-07 12:45 | 44.33193 | 21.14514 | 34042 ft | 437 kts | 325° |
| 2026-05-07 12:46 | 44.38258 | 21.09773 | 34038 ft | 435 kts | 325° |
| 2026-05-07 12:46 | 44.43288 | 21.05057 | 34034 ft | 427 kts | 325° |
| 2026-05-07 12:47 | 44.48204 | 21.00437 | 34033 ft | 423 kts | 326° |
| 2026-05-07 12:47 | 44.53115 | 20.95810 | 34036 ft | 418 kts | 326° |
| 2026-05-07 12:48 | 44.57963 | 20.91233 | 34042 ft | 415 kts | 327° |
| 2026-05-07 12:48 | 44.62736 | 20.86719 | 34047 ft | 412 kts | 327° |
| 2026-05-07 12:49 | 44.67545 | 20.82162 | 34044 ft | 413 kts | 327° |
| 2026-05-07 12:49 | 44.72317 | 20.77628 | 34040 ft | 414 kts | 327° |
| 2026-05-07 12:50 | 44.77020 | 20.72804 | 34038 ft | 414 kts | 325° |
| 2026-05-07 12:50 | 44.81671 | 20.67913 | 34041 ft | 414 kts | 325° |
| 2026-05-07 12:51 | 44.86329 | 20.63018 | 34046 ft | 414 kts | 325° |
| 2026-05-07 12:51 | 44.90977 | 20.58134 | 34047 ft | 414 kts | 325° |
| 2026-05-07 12:52 | 44.95640 | 20.53229 | 34046 ft | 414 kts | 325° |
| 2026-05-07 12:52 | 45.00285 | 20.48336 | 34046 ft | 413 kts | 325° |
| 2026-05-07 12:53 | 45.04951 | 20.43411 | 34046 ft | 411 kts | 325° |
| 2026-05-07 12:53 | 45.09562 | 20.38536 | 34046 ft | 410 kts | 325° |
| 2026-05-07 12:54 | 45.14178 | 20.33643 | 34020 ft | 410 kts | 324° |
| 2026-05-07 12:54 | 45.18808 | 20.28719 | 34020 ft | 410 kts | 324° |
| 2026-05-07 12:55 | 45.23407 | 20.23818 | 34020 ft | 410 kts | 324° |
| 2026-05-07 12:55 | 45.27998 | 20.18920 | 34020 ft | 410 kts | 324° |
| 2026-05-07 12:56 | 45.32606 | 20.13995 | 34020 ft | 410 kts | 324° |
| 2026-05-07 12:56 | 45.37196 | 20.09081 | 34020 ft | 410 kts | 324° |
| 2026-05-07 12:57 | 45.41797 | 20.04145 | 34020 ft | 410 kts | 324° |
| 2026-05-07 12:57 | 45.46390 | 19.99208 | 34020 ft | 410 kts | 324° |
| 2026-05-07 12:58 | 45.50949 | 19.94297 | 34020 ft | 410 kts | 324° |
| 2026-05-07 12:58 | 45.55577 | 19.89302 | 34020 ft | 410 kts | 324° |
| 2026-05-07 12:59 | 45.60128 | 19.84378 | 34020 ft | 410 kts | 324° |
| 2026-05-07 12:59 | 45.64722 | 19.79398 | 34020 ft | 410 kts | 324° |
| 2026-05-07 13:00 | 45.69304 | 19.74422 | 34020 ft | 410 kts | 324° |
| 2026-05-07 13:00 | 45.73893 | 19.69427 | 34020 ft | 410 kts | 324° |
| 2026-05-07 13:01 | 45.78471 | 19.64432 | 34020 ft | 410 kts | 324° |
| 2026-05-07 13:01 | 45.83055 | 19.59422 | 34020 ft | 410 kts | 324° |
| 2026-05-07 13:02 | 45.87630 | 19.54410 | 34020 ft | 410 kts | 324° |
| 2026-05-07 13:02 | 45.92184 | 19.49411 | 34020 ft | 410 kts | 324° |
| 2026-05-07 13:03 | 45.96754 | 19.44384 | 34019 ft | 410 kts | 324° |
| 2026-05-07 13:03 | 46.01325 | 19.39344 | 34020 ft | 410 kts | 324° |
| 2026-05-07 13:04 | 46.05850 | 19.34296 | 34019 ft | 410 kts | 322° |
| 2026-05-07 13:04 | 46.10280 | 19.28969 | 34019 ft | 411 kts | 321° |
| 2026-05-07 13:05 | 46.14663 | 19.23646 | 34018 ft | 411 kts | 321° |
| 2026-05-07 13:05 | 46.19089 | 19.18277 | 34020 ft | 410 kts | 321° |
| 2026-05-07 13:06 | 46.23423 | 19.13016 | 34025 ft | 401 kts | 322° |
| 2026-05-07 13:06 | 46.27703 | 19.07817 | 34030 ft | 393 kts | 322° |
| 2026-05-07 13:07 | 46.31867 | 19.02751 | 34034 ft | 386 kts | 323° |
| 2026-05-07 13:07 | 46.35901 | 18.97835 | 34041 ft | 380 kts | 323° |
| 2026-05-07 13:08 | 46.39904 | 18.92949 | 34047 ft | 375 kts | 323° |
| 2026-05-07 13:08 | 46.43897 | 18.88069 | 34040 ft | 377 kts | 323° |
| 2026-05-07 13:09 | 46.47901 | 18.83166 | 34021 ft | 378 kts | 323° |
| 2026-05-07 13:09 | 46.51890 | 18.78270 | 34014 ft | 377 kts | 323° |
| 2026-05-07 13:10 | 46.55906 | 18.73330 | 34017 ft | 377 kts | 323° |
| 2026-05-07 13:10 | 46.59903 | 18.68403 | 34020 ft | 377 kts | 323° |
| 2026-05-07 13:11 | 46.63892 | 18.63476 | 34020 ft | 377 kts | 323° |
| 2026-05-07 13:11 | 46.67888 | 18.58529 | 34020 ft | 377 kts | 323° |
| 2026-05-07 13:12 | 46.71859 | 18.53605 | 34020 ft | 377 kts | 323° |
| 2026-05-07 13:12 | 46.75857 | 18.48637 | 34019 ft | 377 kts | 323° |
| 2026-05-07 13:13 | 46.79818 | 18.43706 | 34018 ft | 377 kts | 323° |
| 2026-05-07 13:13 | 46.83810 | 18.38725 | 34014 ft | 377 kts | 323° |
| 2026-05-07 13:14 | 46.87797 | 18.33741 | 34006 ft | 377 kts | 323° |
| 2026-05-07 13:14 | 46.91762 | 18.28756 | 33998 ft | 378 kts | 322° |
| 2026-05-07 13:15 | 46.95735 | 18.23756 | 33994 ft | 379 kts | 322° |
| 2026-05-07 13:15 | 46.99701 | 18.18763 | 33993 ft | 380 kts | 322° |
| 2026-05-07 13:16 | 47.03714 | 18.13703 | 33993 ft | 381 kts | 322° |
| 2026-05-07 13:16 | 47.07737 | 18.08624 | 33993 ft | 382 kts | 321° |
| 2026-05-07 13:17 | 47.11723 | 18.03579 | 33993 ft | 382 kts | 322° |
| 2026-05-07 13:17 | 47.15750 | 17.98471 | 33992 ft | 381 kts | 321° |
| 2026-05-07 13:18 | 47.19723 | 17.93422 | 33993 ft | 380 kts | 321° |
| 2026-05-07 13:18 | 47.23726 | 17.88327 | 33993 ft | 381 kts | 321° |
| 2026-05-07 13:19 | 47.27703 | 17.83253 | 33993 ft | 381 kts | 321° |
| 2026-05-07 13:19 | 47.31683 | 17.78164 | 33993 ft | 381 kts | 321° |
| 2026-05-07 13:20 | 47.35681 | 17.73042 | 33993 ft | 380 kts | 321° |
| 2026-05-07 13:20 | 47.39664 | 17.67929 | 33992 ft | 381 kts | 321° |
| 2026-05-07 13:21 | 47.43649 | 17.62800 | 33993 ft | 381 kts | 321° |
| 2026-05-07 13:21 | 47.47635 | 17.57661 | 33993 ft | 381 kts | 321° |
| 2026-05-07 13:22 | 47.51599 | 17.52538 | 33992 ft | 379 kts | 321° |
| 2026-05-07 13:22 | 47.55589 | 17.47375 | 33993 ft | 381 kts | 321° |
| 2026-05-07 13:23 | 47.59554 | 17.42231 | 33993 ft | 381 kts | 321° |
| 2026-05-07 13:23 | 47.63516 | 17.37078 | 33992 ft | 380 kts | 321° |
| 2026-05-07 13:24 | 47.67471 | 17.31920 | 33993 ft | 380 kts | 321° |
| 2026-05-07 13:24 | 47.71446 | 17.26713 | 33988 ft | 381 kts | 321° |
| 2026-05-07 13:25 | 47.75398 | 17.21531 | 33979 ft | 380 kts | 321° |
| 2026-05-07 13:25 | 47.79374 | 17.16314 | 33971 ft | 382 kts | 321° |
| 2026-05-07 13:26 | 47.83245 | 17.10960 | 33965 ft | 383 kts | 316° |
| 2026-05-07 13:26 | 47.86745 | 17.05030 | 33966 ft | 383 kts | 314° |
| 2026-05-07 13:27 | 47.90170 | 16.99007 | 33965 ft | 380 kts | 314° |
| 2026-05-07 13:27 | 47.93523 | 16.93082 | 33965 ft | 370 kts | 314° |
| 2026-05-07 13:28 | 47.96803 | 16.87282 | 33966 ft | 362 kts | 315° |
| 2026-05-07 13:28 | 48.00005 | 16.81613 | 33966 ft | 355 kts | 315° |
| 2026-05-07 13:29 | 48.03153 | 16.76031 | 33966 ft | 351 kts | 315° |
| 2026-05-07 13:29 | 48.06316 | 16.70416 | 33966 ft | 353 kts | 315° |
| 2026-05-07 13:30 | 48.09463 | 16.64815 | 33965 ft | 354 kts | 315° |
| 2026-05-07 13:30 | 48.12582 | 16.59147 | 33965 ft | 354 kts | 314° |
| 2026-05-07 13:31 | 48.15665 | 16.53400 | 33966 ft | 354 kts | 314° |
| 2026-05-07 13:31 | 48.18729 | 16.47677 | 33966 ft | 353 kts | 314° |
| 2026-05-07 13:32 | 48.21799 | 16.41940 | 33966 ft | 354 kts | 314° |
| 2026-05-07 13:32 | 48.24852 | 16.36224 | 33966 ft | 354 kts | 314° |
| 2026-05-07 13:33 | 48.27924 | 16.30447 | 33966 ft | 354 kts | 313° |
| 2026-05-07 13:33 | 48.30991 | 16.24660 | 33966 ft | 354 kts | 314° |
| 2026-05-07 13:34 | 48.35586 | 16.15983 | 33966 ft | 354 kts | 314° |
| 2026-05-07 13:35 | 48.38649 | 16.10194 | 33966 ft | 354 kts | 314° |
| 2026-05-07 13:35 | 48.41726 | 16.04369 | 33966 ft | 354 kts | 314° |
| 2026-05-07 13:36 | 48.44806 | 15.98525 | 33966 ft | 354 kts | 314° |
| 2026-05-07 13:36 | 48.47862 | 15.92716 | 33966 ft | 354 kts | 314° |
| 2026-05-07 13:37 | 48.50914 | 15.86901 | 33966 ft | 354 kts | 314° |
| 2026-05-07 13:37 | 48.53961 | 15.81081 | 33966 ft | 354 kts | 314° |
| 2026-05-07 13:38 | 48.56987 | 15.75291 | 33966 ft | 354 kts | 314° |
| 2026-05-07 13:38 | 48.60038 | 15.69443 | 33966 ft | 354 kts | 314° |
| 2026-05-07 13:39 | 48.63057 | 15.63640 | 33966 ft | 354 kts | 314° |
| 2026-05-07 13:39 | 48.66100 | 15.57781 | 33966 ft | 354 kts | 314° |
| 2026-05-07 13:40 | 48.69130 | 15.51934 | 33966 ft | 354 kts | 314° |
| 2026-05-07 13:40 | 48.72179 | 15.46036 | 33966 ft | 354 kts | 314° |
| 2026-05-07 13:41 | 48.75185 | 15.40208 | 33966 ft | 354 kts | 314° |
| 2026-05-07 13:41 | 48.78200 | 15.34349 | 33966 ft | 354 kts | 313° |
| 2026-05-07 13:42 | 48.81246 | 15.28393 | 33966 ft | 355 kts | 313° |
| 2026-05-07 13:42 | 48.84261 | 15.22487 | 33966 ft | 355 kts | 313° |
| 2026-05-07 13:43 | 48.87265 | 15.16598 | 33966 ft | 354 kts | 313° |
| 2026-05-07 13:43 | 48.90282 | 15.10703 | 33966 ft | 354 kts | 314° |
| 2026-05-07 13:44 | 48.93399 | 15.04860 | 33972 ft | 356 kts | 314° |
| 2026-05-07 13:44 | 48.96546 | 14.99000 | 33979 ft | 360 kts | 313° |
| 2026-05-07 13:45 | 48.99693 | 14.93113 | 33982 ft | 362 kts | 312° |
| 2026-05-07 13:45 | 49.02867 | 14.87152 | 33982 ft | 362 kts | 311° |
| 2026-05-07 13:46 | 49.06045 | 14.81165 | 33980 ft | 360 kts | 311° |
| 2026-05-07 13:46 | 49.09178 | 14.75249 | 33981 ft | 358 kts | 310° |
| 2026-05-07 13:47 | 49.12290 | 14.69360 | 33985 ft | 357 kts | 310° |
| 2026-05-07 13:47 | 49.15417 | 14.63429 | 33988 ft | 357 kts | 310° |
| 2026-05-07 13:48 | 49.18510 | 14.57549 | 33983 ft | 357 kts | 310° |
| 2026-05-07 13:48 | 49.21647 | 14.51575 | 33978 ft | 357 kts | 310° |
| 2026-05-07 13:49 | 49.24754 | 14.45643 | 33973 ft | 357 kts | 310° |
| 2026-05-07 13:49 | 49.27868 | 14.39684 | 33967 ft | 357 kts | 310° |
| 2026-05-07 13:50 | 49.30954 | 14.33767 | 33966 ft | 358 kts | 309° |
| 2026-05-07 13:50 | 49.34043 | 14.27802 | 33966 ft | 358 kts | 309° |
| 2026-05-07 13:51 | 49.37150 | 14.21793 | 33966 ft | 357 kts | 309° |
| 2026-05-07 13:51 | 49.40214 | 14.15866 | 33966 ft | 357 kts | 309° |
| 2026-05-07 13:52 | 49.43301 | 14.09889 | 33971 ft | 357 kts | 309° |
| 2026-05-07 13:52 | 49.46401 | 14.03876 | 33976 ft | 357 kts | 309° |
| 2026-05-07 13:53 | 49.49490 | 13.97872 | 33979 ft | 357 kts | 309° |
| 2026-05-07 13:53 | 49.52564 | 13.91883 | 33979 ft | 357 kts | 309° |
| 2026-05-07 13:54 | 49.55640 | 13.85877 | 33978 ft | 357 kts | 309° |
| 2026-05-07 13:54 | 49.58693 | 13.79903 | 33980 ft | 357 kts | 310° |
| 2026-05-07 13:55 | 49.61759 | 13.73890 | 33984 ft | 357 kts | 310° |
| 2026-05-07 13:55 | 49.64823 | 13.67865 | 33991 ft | 357 kts | 310° |
| 2026-05-07 13:56 | 49.67880 | 13.61843 | 33993 ft | 357 kts | 310° |
| 2026-05-07 13:56 | 49.70937 | 13.55805 | 33993 ft | 357 kts | 310° |
| 2026-05-07 13:57 | 49.73989 | 13.49765 | 33993 ft | 357 kts | 310° |
| 2026-05-07 13:57 | 49.77056 | 13.43680 | 33993 ft | 357 kts | 310° |
| 2026-05-07 13:58 | 49.80102 | 13.37623 | 33993 ft | 357 kts | 310° |
| 2026-05-07 13:58 | 49.83141 | 13.31558 | 33993 ft | 357 kts | 309° |
| 2026-05-07 13:59 | 49.86186 | 13.25446 | 33993 ft | 357 kts | 309° |
| 2026-05-07 13:59 | 49.89232 | 13.19327 | 33993 ft | 357 kts | 309° |
| 2026-05-07 14:00 | 49.92273 | 13.13219 | 33987 ft | 358 kts | 308° |
| 2026-05-07 14:00 | 49.95330 | 13.07066 | 33978 ft | 359 kts | 308° |
| 2026-05-07 14:01 | 49.98399 | 13.00878 | 33970 ft | 360 kts | 307° |
| 2026-05-07 14:01 | 50.01467 | 12.94677 | 33966 ft | 362 kts | 307° |
| 2026-05-07 14:02 | 50.04556 | 12.88421 | 33966 ft | 362 kts | 307° |
| 2026-05-07 14:02 | 50.07624 | 12.82190 | 33966 ft | 361 kts | 307° |
| 2026-05-07 14:03 | 50.10686 | 12.75959 | 33966 ft | 362 kts | 307° |
| 2026-05-07 14:03 | 50.13741 | 12.69727 | 33966 ft | 362 kts | 307° |
| 2026-05-07 14:04 | 50.16798 | 12.63477 | 33966 ft | 362 kts | 307° |
| 2026-05-07 14:04 | 50.19868 | 12.57184 | 33966 ft | 361 kts | 306° |
| 2026-05-07 14:05 | 50.22912 | 12.50930 | 33966 ft | 361 kts | 307° |
| 2026-05-07 14:05 | 50.25946 | 12.44681 | 33968 ft | 361 kts | 307° |
| 2026-05-07 14:06 | 50.28998 | 12.38380 | 33975 ft | 361 kts | 307° |
| 2026-05-07 14:06 | 50.32050 | 12.32139 | 33982 ft | 362 kts | 306° |
| 2026-05-07 14:07 | 50.35118 | 12.25855 | 33989 ft | 362 kts | 306° |
| 2026-05-07 14:07 | 50.38176 | 12.19585 | 33993 ft | 361 kts | 306° |
| 2026-05-07 14:08 | 50.41202 | 12.13374 | 33993 ft | 361 kts | 306° |
| 2026-05-07 14:08 | 50.44233 | 12.07141 | 33993 ft | 361 kts | 306° |
| 2026-05-07 14:09 | 50.47270 | 12.00881 | 33993 ft | 361 kts | 306° |
| 2026-05-07 14:09 | 50.50319 | 11.94585 | 33993 ft | 361 kts | 306° |
| 2026-05-07 14:10 | 50.53351 | 11.88310 | 33993 ft | 361 kts | 306° |
| 2026-05-07 14:10 | 50.56385 | 11.82013 | 33993 ft | 361 kts | 306° |
| 2026-05-07 14:11 | 50.59423 | 11.75695 | 33993 ft | 361 kts | 306° |
| 2026-05-07 14:11 | 50.62424 | 11.69436 | 33993 ft | 361 kts | 306° |
| 2026-05-07 14:12 | 50.65467 | 11.63075 | 33993 ft | 361 kts | 306° |
| 2026-05-07 14:12 | 50.68470 | 11.56782 | 33993 ft | 361 kts | 306° |
| 2026-05-07 14:13 | 50.71489 | 11.50440 | 33993 ft | 361 kts | 306° |
| 2026-05-07 14:13 | 50.74495 | 11.44113 | 34011 ft | 361 kts | 306° |
| 2026-05-07 14:14 | 50.77486 | 11.37800 | 34028 ft | 361 kts | 306° |
| 2026-05-07 14:14 | 50.80473 | 11.31473 | 34041 ft | 361 kts | 306° |
| 2026-05-07 14:15 | 50.83484 | 11.25054 | 34047 ft | 361 kts | 306° |
| 2026-05-07 14:15 | 50.86458 | 11.18714 | 34060 ft | 362 kts | 306° |
| 2026-05-07 14:15 | 50.87968 | 11.15493 | 34351 ft | 362 kts | 306° |
| 2026-05-07 14:16 | 50.89452 | 11.12323 | 34688 ft | 361 kts | 306° |
| 2026-05-07 14:16 | 50.90953 | 11.09117 | 34997 ft | 360 kts | 305° |
| 2026-05-07 14:16 | 50.92441 | 11.05936 | 35319 ft | 359 kts | 305° |
| 2026-05-07 14:16 | 50.93905 | 11.02801 | 35627 ft | 357 kts | 305° |
| 2026-05-07 14:17 | 50.95383 | 10.99634 | 35895 ft | 356 kts | 304° |
| 2026-05-07 14:17 | 50.96860 | 10.96463 | 36051 ft | 358 kts | 303° |
| 2026-05-07 14:17 | 50.98337 | 10.93293 | 36044 ft | 358 kts | 303° |
| 2026-05-07 14:18 | 51.01263 | 10.86997 | 36047 ft | 354 kts | 302° |
| 2026-05-07 14:18 | 51.04193 | 10.80674 | 36047 ft | 356 kts | 301° |
| 2026-05-07 14:19 | 51.07140 | 10.74298 | 36047 ft | 358 kts | 301° |
| 2026-05-07 14:19 | 51.10065 | 10.67957 | 36047 ft | 358 kts | 301° |
| 2026-05-07 14:20 | 51.13003 | 10.61572 | 36047 ft | 357 kts | 301° |
| 2026-05-07 14:20 | 51.15936 | 10.55184 | 36047 ft | 357 kts | 301° |
| 2026-05-07 14:21 | 51.18858 | 10.48804 | 36047 ft | 358 kts | 301° |
| 2026-05-07 14:21 | 51.21788 | 10.42390 | 36047 ft | 358 kts | 301° |
| 2026-05-07 14:22 | 51.24583 | 10.35856 | 36046 ft | 354 kts | 296° |
| 2026-05-07 14:22 | 51.26724 | 10.28830 | 36047 ft | 352 kts | 290° |
| 2026-05-07 14:23 | 51.28655 | 10.21652 | 36047 ft | 351 kts | 290° |
| 2026-05-07 14:23 | 51.30535 | 10.14578 | 36047 ft | 351 kts | 290° |
| 2026-05-07 14:24 | 51.32446 | 10.07342 | 36047 ft | 351 kts | 290° |
| 2026-05-07 14:24 | 51.34341 | 10.00138 | 36047 ft | 351 kts | 290° |
| 2026-05-07 14:25 | 51.36221 | 9.92968 | 36047 ft | 351 kts | 290° |
| 2026-05-07 14:25 | 51.38092 | 9.85804 | 36047 ft | 351 kts | 290° |
| 2026-05-07 14:26 | 51.39982 | 9.78545 | 36047 ft | 351 kts | 290° |
| 2026-05-07 14:26 | 51.41855 | 9.71329 | 36047 ft | 351 kts | 290° |
| 2026-05-07 14:27 | 51.43716 | 9.64134 | 36047 ft | 351 kts | 290° |
| 2026-05-07 14:27 | 51.45589 | 9.56870 | 36047 ft | 351 kts | 290° |
| 2026-05-07 14:28 | 51.47442 | 9.49665 | 36047 ft | 351 kts | 290° |
| 2026-05-07 14:28 | 51.49298 | 9.42420 | 36047 ft | 351 kts | 290° |
| 2026-05-07 14:29 | 51.51151 | 9.35167 | 36047 ft | 351 kts | 290° |
| 2026-05-07 14:29 | 51.52989 | 9.27905 | 36047 ft | 351 kts | 289° |
| 2026-05-07 14:30 | 51.54825 | 9.20626 | 36047 ft | 351 kts | 289° |
| 2026-05-07 14:30 | 51.56659 | 9.13353 | 36047 ft | 351 kts | 289° |
| 2026-05-07 14:31 | 51.58475 | 9.06141 | 36051 ft | 351 kts | 289° |
| 2026-05-07 14:31 | 51.60310 | 8.98835 | 36059 ft | 350 kts | 288° |
| 2026-05-07 14:32 | 51.62122 | 8.91602 | 36068 ft | 350 kts | 288° |
| 2026-05-07 14:32 | 51.63927 | 8.84374 | 36074 ft | 349 kts | 288° |
| 2026-05-07 14:33 | 51.65744 | 8.77072 | 36074 ft | 350 kts | 288° |
| 2026-05-07 14:33 | 51.67535 | 8.69852 | 36074 ft | 350 kts | 288° |
| 2026-05-07 14:34 | 51.69342 | 8.62542 | 36074 ft | 350 kts | 288° |
| 2026-05-07 14:34 | 51.71140 | 8.55245 | 36074 ft | 350 kts | 288° |
| 2026-05-07 14:35 | 51.72927 | 8.47970 | 36074 ft | 350 kts | 288° |
| 2026-05-07 14:35 | 51.74712 | 8.40679 | 36074 ft | 350 kts | 288° |
| 2026-05-07 14:36 | 51.76493 | 8.33378 | 36075 ft | 350 kts | 287° |
| 2026-05-07 14:36 | 51.78239 | 8.26144 | 36074 ft | 349 kts | 287° |
| 2026-05-07 14:37 | 51.80010 | 8.18795 | 36074 ft | 349 kts | 287° |
| 2026-05-07 14:37 | 51.82653 | 8.07822 | 36074 ft | 349 kts | 287° |
| 2026-05-07 14:38 | 51.84412 | 8.00501 | 36074 ft | 349 kts | 287° |
| 2026-05-07 14:38 | 51.86150 | 7.93244 | 36074 ft | 349 kts | 287° |
| 2026-05-07 14:39 | 51.87904 | 7.85894 | 36074 ft | 349 kts | 287° |
| 2026-05-07 14:39 | 51.89652 | 7.78550 | 36074 ft | 349 kts | 287° |
| 2026-05-07 14:40 | 51.91389 | 7.71230 | 36074 ft | 349 kts | 287° |
| 2026-05-07 14:40 | 51.93128 | 7.63870 | 36074 ft | 349 kts | 287° |
| 2026-05-07 14:41 | 51.94845 | 7.56578 | 36074 ft | 349 kts | 287° |
| 2026-05-07 14:41 | 51.96578 | 7.49197 | 36074 ft | 349 kts | 287° |
| 2026-05-07 14:42 | 51.98301 | 7.41835 | 36074 ft | 349 kts | 287° |
| 2026-05-07 14:42 | 52.00014 | 7.34487 | 36074 ft | 349 kts | 287° |
| 2026-05-07 14:43 | 52.01720 | 7.27095 | 36074 ft | 349 kts | 286° |
| 2026-05-07 14:43 | 52.03418 | 7.19712 | 36074 ft | 349 kts | 286° |
| 2026-05-07 14:44 | 52.05102 | 7.12389 | 36074 ft | 348 kts | 286° |
| 2026-05-07 14:44 | 52.06804 | 7.04980 | 36074 ft | 348 kts | 285° |
| 2026-05-07 14:45 | 52.08483 | 6.97649 | 36074 ft | 348 kts | 284° |
| 2026-05-07 14:45 | 52.10175 | 6.90240 | 36069 ft | 348 kts | 284° |
| 2026-05-07 14:46 | 52.11937 | 6.82894 | 36061 ft | 350 kts | 287° |
| 2026-05-07 14:46 | 52.14055 | 6.75688 | 36053 ft | 352 kts | 289° |
| 2026-05-07 14:47 | 52.16233 | 6.68466 | 36047 ft | 352 kts | 289° |
| 2026-05-07 14:47 | 52.18396 | 6.61248 | 36049 ft | 352 kts | 289° |
| 2026-05-07 14:48 | 52.20534 | 6.54066 | 36049 ft | 352 kts | 289° |
| 2026-05-07 14:48 | 52.22689 | 6.46793 | 36047 ft | 352 kts | 289° |
| 2026-05-07 14:49 | 52.24823 | 6.39566 | 36047 ft | 352 kts | 289° |
| 2026-05-07 14:49 | 52.26936 | 6.32382 | 36047 ft | 352 kts | 288° |
| 2026-05-07 14:50 | 52.29053 | 6.25120 | 36047 ft | 351 kts | 288° |
| 2026-05-07 14:50 | 52.31156 | 6.17897 | 36047 ft | 351 kts | 288° |
| 2026-05-07 14:51 | 52.33259 | 6.10670 | 36050 ft | 351 kts | 288° |
| 2026-05-07 14:51 | 52.35372 | 6.03396 | 36061 ft | 351 kts | 288° |
| 2026-05-07 14:52 | 52.37479 | 5.96122 | 36072 ft | 352 kts | 288° |
| 2026-05-07 14:52 | 52.39579 | 5.88853 | 36079 ft | 352 kts | 288° |
| 2026-05-07 14:53 | 52.41665 | 5.81613 | 36080 ft | 352 kts | 288° |
| 2026-05-07 14:53 | 52.43765 | 5.74300 | 36074 ft | 352 kts | 288° |
| 2026-05-07 14:54 | 52.45848 | 5.67022 | 36074 ft | 352 kts | 288° |
| 2026-05-07 14:54 | 52.47924 | 5.59748 | 36074 ft | 352 kts | 288° |
| 2026-05-07 14:55 | 52.49997 | 5.52468 | 36074 ft | 351 kts | 288° |
| 2026-05-07 14:55 | 52.52060 | 5.45191 | 36074 ft | 351 kts | 288° |
| 2026-05-07 14:56 | 52.54131 | 5.37868 | 36074 ft | 351 kts | 288° |
| 2026-05-07 14:56 | 52.56166 | 5.30630 | 36074 ft | 351 kts | 287° |
| 2026-05-07 14:57 | 52.58197 | 5.23356 | 36076 ft | 350 kts | 287° |
| 2026-05-07 14:57 | 52.60233 | 5.16057 | 36082 ft | 350 kts | 288° |
| 2026-05-07 14:58 | 52.62247 | 5.08833 | 36091 ft | 351 kts | 288° |
| 2026-05-07 14:58 | 52.64272 | 5.01555 | 36100 ft | 350 kts | 287° |
| 2026-05-07 14:59 | 52.66301 | 4.94247 | 36101 ft | 348 kts | 287° |
| 2026-05-07 14:59 | 52.68294 | 4.87046 | 36101 ft | 345 kts | 287° |
| 2026-05-07 15:00 | 52.70280 | 4.79850 | 36101 ft | 343 kts | 286° |
| 2026-05-07 15:00 | 52.72267 | 4.72621 | 36101 ft | 343 kts | 286° |
| 2026-05-07 15:01 | 52.74254 | 4.65367 | 36101 ft | 344 kts | 286° |
| 2026-05-07 15:01 | 52.76225 | 4.58150 | 36101 ft | 344 kts | 286° |
| 2026-05-07 15:02 | 52.78208 | 4.50871 | 36101 ft | 344 kts | 286° |
| 2026-05-07 15:02 | 52.80170 | 4.43646 | 36101 ft | 344 kts | 286° |
| 2026-05-07 15:03 | 52.82132 | 4.36399 | 36101 ft | 344 kts | 286° |
| 2026-05-07 15:03 | 52.84076 | 4.29167 | 36101 ft | 343 kts | 285° |
| 2026-05-07 15:04 | 52.86021 | 4.21886 | 36101 ft | 343 kts | 285° |
| 2026-05-07 15:04 | 52.87971 | 4.14587 | 36101 ft | 343 kts | 285° |
| 2026-05-07 15:05 | 52.89915 | 4.07303 | 36101 ft | 343 kts | 286° |
| 2026-05-07 15:05 | 52.91864 | 3.99985 | 36101 ft | 343 kts | 286° |
| 2026-05-07 15:06 | 52.93791 | 3.92728 | 36101 ft | 343 kts | 286° |
| 2026-05-07 15:06 | 52.95731 | 3.85398 | 36101 ft | 343 kts | 285° |
| 2026-05-07 15:07 | 52.97666 | 3.78064 | 36101 ft | 344 kts | 285° |
| 2026-05-07 15:07 | 52.99592 | 3.70735 | 36101 ft | 347 kts | 285° |
| 2026-05-07 15:08 | 53.01559 | 3.63229 | 36101 ft | 350 kts | 285° |
| 2026-05-07 15:08 | 53.03506 | 3.55778 | 36101 ft | 352 kts | 285° |
| 2026-05-07 15:09 | 53.05476 | 3.48217 | 36101 ft | 354 kts | 285° |
| 2026-05-07 15:09 | 53.07448 | 3.40617 | 36101 ft | 356 kts | 285° |
| 2026-05-07 15:10 | 53.09390 | 3.32930 | 36100 ft | 355 kts | 283° |
| 2026-05-07 15:10 | 53.10749 | 3.25021 | 36100 ft | 352 kts | 277° |
| 2026-05-07 15:11 | 53.11855 | 3.17008 | 36100 ft | 352 kts | 277° |
| 2026-05-07 15:11 | 53.12920 | 3.09017 | 36100 ft | 353 kts | 277° |
| 2026-05-07 15:12 | 53.13980 | 3.00999 | 36091 ft | 352 kts | 276° |
| 2026-05-07 15:12 | 53.15037 | 2.92951 | 36082 ft | 351 kts | 276° |
| 2026-05-07 15:13 | 53.16076 | 2.85001 | 36074 ft | 350 kts | 275° |
| 2026-05-07 15:13 | 53.17119 | 2.76971 | 36074 ft | 350 kts | 275° |
| 2026-05-07 15:14 | 53.18155 | 2.68942 | 36074 ft | 351 kts | 275° |
| 2026-05-07 15:14 | 53.19179 | 2.60968 | 36074 ft | 351 kts | 275° |
| 2026-05-07 15:15 | 53.20206 | 2.52924 | 36074 ft | 351 kts | 275° |
| 2026-05-07 15:15 | 53.21219 | 2.44939 | 36074 ft | 351 kts | 275° |
| 2026-05-07 15:16 | 53.22236 | 2.36883 | 36074 ft | 351 kts | 275° |
| 2026-05-07 15:16 | 53.23237 | 2.28850 | 36073 ft | 350 kts | 275° |
| 2026-05-07 15:17 | 53.24227 | 2.20810 | 36074 ft | 350 kts | 275° |
| 2026-05-07 15:17 | 53.25215 | 2.12793 | 36074 ft | 350 kts | 275° |
| 2026-05-07 15:18 | 53.26205 | 2.04731 | 36074 ft | 350 kts | 275° |
| 2026-05-07 15:18 | 53.27193 | 1.96663 | 36074 ft | 350 kts | 275° |
| 2026-05-07 15:19 | 53.28167 | 1.88668 | 36074 ft | 350 kts | 275° |
| 2026-05-07 15:19 | 53.29143 | 1.80596 | 36074 ft | 350 kts | 275° |
| 2026-05-07 15:20 | 53.30109 | 1.72576 | 36074 ft | 350 kts | 275° |
| 2026-05-07 15:20 | 53.31074 | 1.64509 | 36074 ft | 350 kts | 275° |
| 2026-05-07 15:21 | 53.32036 | 1.56416 | 36074 ft | 350 kts | 275° |
| 2026-05-07 15:21 | 53.33028 | 1.48406 | 36074 ft | 352 kts | 276° |
| 2026-05-07 15:22 | 53.34205 | 1.40365 | 36074 ft | 353 kts | 277° |
| 2026-05-07 15:22 | 53.35389 | 1.32337 | 36074 ft | 352 kts | 276° |
| 2026-05-07 15:23 | 53.36551 | 1.24279 | 36074 ft | 352 kts | 276° |
| 2026-05-07 15:23 | 53.37697 | 1.16278 | 36074 ft | 352 kts | 276° |
| 2026-05-07 15:24 | 53.38842 | 1.08254 | 36074 ft | 351 kts | 276° |
| 2026-05-07 15:24 | 53.39982 | 1.00243 | 36074 ft | 351 kts | 275° |
| 2026-05-07 15:25 | 53.41110 | 0.92280 | 36074 ft | 350 kts | 275° |
| 2026-05-07 15:25 | 53.42240 | 0.84251 | 36074 ft | 350 kts | 275° |
| 2026-05-07 15:26 | 53.43362 | 0.76242 | 36074 ft | 351 kts | 275° |
| 2026-05-07 15:26 | 53.44472 | 0.68275 | 36072 ft | 351 kts | 275° |
| 2026-05-07 15:27 | 53.45585 | 0.60245 | 36063 ft | 351 kts | 275° |
| 2026-05-07 15:27 | 53.46696 | 0.52194 | 36054 ft | 351 kts | 275° |
| 2026-05-07 15:28 | 53.47800 | 0.44145 | 36047 ft | 351 kts | 275° |
| 2026-05-07 15:28 | 53.48896 | 0.36112 | 36050 ft | 351 kts | 275° |
| 2026-05-07 15:29 | 53.49979 | 0.28075 | 36060 ft | 350 kts | 275° |
| 2026-05-07 15:29 | 53.51057 | 0.20040 | 36059 ft | 350 kts | 274° |
| 2026-05-07 15:30 | 53.52121 | 0.12034 | 36066 ft | 350 kts | 275° |
| 2026-05-07 15:30 | 53.53180 | 0.04064 | 36071 ft | 350 kts | 275° |
| 2026-05-07 15:31 | 53.54239 | -0.03926 | 36074 ft | 350 kts | 275° |
| 2026-05-07 15:31 | 53.55292 | -0.11913 | 36074 ft | 350 kts | 275° |
| 2026-05-07 15:32 | 53.56338 | -0.19887 | 36074 ft | 350 kts | 275° |
| 2026-05-07 15:32 | 53.57381 | -0.27880 | 36074 ft | 350 kts | 275° |
| 2026-05-07 15:33 | 53.58416 | -0.35854 | 36074 ft | 350 kts | 275° |
| 2026-05-07 15:33 | 53.59445 | -0.43827 | 36074 ft | 350 kts | 275° |
| 2026-05-07 15:34 | 53.60469 | -0.51807 | 36074 ft | 350 kts | 275° |
| 2026-05-07 15:34 | 53.61475 | -0.59695 | 36074 ft | 350 kts | 275° |
| 2026-05-07 15:35 | 53.62492 | -0.67720 | 36074 ft | 350 kts | 274° |
| 2026-05-07 15:35 | 53.63493 | -0.75761 | 36073 ft | 350 kts | 274° |
| 2026-05-07 15:36 | 53.64494 | -0.83809 | 36071 ft | 350 kts | 274° |
| 2026-05-07 15:36 | 53.65501 | -0.91925 | 36067 ft | 350 kts | 274° |
| 2026-05-07 15:37 | 53.66501 | -1.00001 | 36062 ft | 350 kts | 274° |
| 2026-05-07 15:37 | 53.67487 | -1.08020 | 36033 ft | 350 kts | 274° |
| 2026-05-07 15:38 | 53.67980 | -1.11997 | 35726 ft | 339 kts | 273° |
| 2026-05-07 15:38 | 53.68458 | -1.15847 | 35180 ft | 329 kts | 273° |
| 2026-05-07 15:38 | 53.68919 | -1.19587 | 34694 ft | 320 kts | 273° |
| 2026-05-07 15:38 | 53.69371 | -1.23325 | 34197 ft | 327 kts | 272° |
| 2026-05-07 15:39 | 53.69822 | -1.27117 | 33667 ft | 332 kts | 273° |
| 2026-05-07 15:39 | 53.70280 | -1.30911 | 33148 ft | 327 kts | 273° |
| 2026-05-07 15:39 | 53.70764 | -1.34787 | 32615 ft | 340 kts | 275° |
| 2026-05-07 15:39 | 53.71491 | -1.38643 | 32034 ft | 349 kts | 283° |
| 2026-05-07 15:40 | 53.72652 | -1.42300 | 31454 ft | 365 kts | 293° |
| 2026-05-07 15:40 | 53.74403 | -1.45561 | 30955 ft | 388 kts | 307° |
| 2026-05-07 15:40 | 53.76617 | -1.48267 | 30475 ft | 389 kts | 314° |
| 2026-05-07 15:40 | 53.78919 | -1.50691 | 29986 ft | 399 kts | 315° |
| 2026-05-07 15:41 | 53.81333 | -1.53149 | 29463 ft | 397 kts | 316° |
| 2026-05-07 15:41 | 53.83675 | -1.55505 | 28966 ft | 387 kts | 316° |
| 2026-05-07 15:41 | 53.85990 | -1.57852 | 28489 ft | 390 kts | 316° |
| 2026-05-07 15:41 | 53.88315 | -1.60234 | 27984 ft | 392 kts | 316° |
| 2026-05-07 15:42 | 53.90628 | -1.62590 | 27480 ft | 381 kts | 316° |
| 2026-05-07 15:42 | 53.92902 | -1.64912 | 27008 ft | 380 kts | 316° |
| 2026-05-07 15:42 | 53.95183 | -1.67269 | 26512 ft | 383 kts | 316° |
| 2026-05-07 15:42 | 53.97440 | -1.69587 | 26010 ft | 374 kts | 316° |
| 2026-05-07 15:43 | 53.99654 | -1.71863 | 25540 ft | 373 kts | 316° |
| 2026-05-07 15:43 | 54.01908 | -1.74206 | 25091 ft | 378 kts | 316° |
| 2026-05-07 15:43 | 54.04163 | -1.76534 | 24636 ft | 372 kts | 316° |
| 2026-05-07 15:43 | 54.06377 | -1.78821 | 23706 ft | 375 kts | 317° |
| 2026-05-07 15:44 | 54.08610 | -1.81129 | 22727 ft | 380 kts | 319° |
| 2026-05-07 15:44 | 54.10998 | -1.83214 | 21874 ft | 388 kts | 327° |
| 2026-05-07 15:44 | 54.13597 | -1.84707 | 21206 ft | 393 kts | 337° |
| 2026-05-07 15:44 | 54.16283 | -1.85264 | 20665 ft | 399 kts | 352° |
| 2026-05-07 15:45 | 54.19072 | -1.84845 | 20143 ft | 397 kts | 360° |
| 2026-05-07 15:45 | 54.21781 | -1.84119 | 19617 ft | 391 kts | 1° |
| 2026-05-07 15:45 | 54.24464 | -1.83331 | 19101 ft | 385 kts | 2° |
| 2026-05-07 15:45 | 54.27099 | -1.82548 | 18608 ft | 389 kts | 2° |
| 2026-05-07 15:46 | 54.32361 | -1.80940 | 17576 ft | 374 kts | 3° |
| 2026-05-07 15:46 | 54.34955 | -1.80139 | 17095 ft | 379 kts | 3° |
| 2026-05-07 15:46 | 54.37530 | -1.79337 | 16578 ft | 373 kts | 4° |
| 2026-05-07 15:47 | 54.40049 | -1.78543 | 16114 ft | 366 kts | 4° |
| 2026-05-07 15:47 | 54.42598 | -1.77746 | 15762 ft | 373 kts | 4° |
| 2026-05-07 15:47 | 54.45137 | -1.76948 | 14882 ft | 378 kts | 5° |
| 2026-05-07 15:47 | 54.47745 | -1.76124 | 13878 ft | 383 kts | 5° |
| 2026-05-07 15:48 | 54.50402 | -1.75281 | 13008 ft | 382 kts | 6° |
| 2026-05-07 15:48 | 54.53011 | -1.74452 | 12197 ft | 379 kts | 6° |
| 2026-05-07 15:48 | 54.55547 | -1.73641 | 11724 ft | 367 kts | 6° |
| 2026-05-07 15:48 | 54.58048 | -1.72843 | 10981 ft | 364 kts | 6° |
| 2026-05-07 15:49 | 54.60553 | -1.72044 | 10341 ft | 352 kts | 7° |
| 2026-05-07 15:49 | 54.62917 | -1.71287 | 10042 ft | 336 kts | 7° |
| 2026-05-07 15:49 | 54.65186 | -1.70558 | 9796 ft | 321 kts | 6° |
| 2026-05-07 15:49 | 54.67356 | -1.69866 | 9328 ft | 314 kts | 7° |
| 2026-05-07 15:50 | 54.69496 | -1.69116 | 9037 ft | 303 kts | 13° |
| 2026-05-07 15:50 | 54.71433 | -1.68066 | 8871 ft | 283 kts | 14° |
| 2026-05-07 15:50 | 54.73318 | -1.67014 | 8274 ft | 285 kts | 14° |
| 2026-05-07 15:50 | 54.75231 | -1.65933 | 7787 ft | 283 kts | 16° |
| 2026-05-07 15:51 | 54.77095 | -1.64847 | 7365 ft | 280 kts | 15° |
| 2026-05-07 15:51 | 54.78924 | -1.63748 | 6937 ft | 276 kts | 15° |
| 2026-05-07 15:51 | 54.80745 | -1.62693 | 6504 ft | 273 kts | 16° |
| 2026-05-07 15:51 | 54.82525 | -1.61661 | 6079 ft | 270 kts | 16° |
| 2026-05-07 15:52 | 54.84304 | -1.60599 | 5656 ft | 267 kts | 15° |
| 2026-05-07 15:52 | 54.86092 | -1.59553 | 5238 ft | 263 kts | 16° |
| 2026-05-07 15:52 | 54.87781 | -1.58581 | 5054 ft | 249 kts | 17° |
| 2026-05-07 15:52 | 54.89428 | -1.57609 | 4938 ft | 248 kts | 16° |
| 2026-05-07 15:53 | 54.91077 | -1.56634 | 4698 ft | 247 kts | 17° |
| 2026-05-07 15:53 | 54.92690 | -1.55685 | 4428 ft | 239 kts | 16° |
| 2026-05-07 15:53 | 54.94233 | -1.54754 | 4201 ft | 229 kts | 15° |
| 2026-05-07 15:53 | 54.95719 | -1.53874 | 3964 ft | 217 kts | 15° |
| 2026-05-07 15:54 | 54.97111 | -1.53054 | 3716 ft | 203 kts | 15° |
| 2026-05-07 15:54 | 54.98440 | -1.52269 | 3486 ft | 193 kts | 15° |
| 2026-05-07 15:54 | 54.99710 | -1.51521 | 3309 ft | 193 kts | 17° |
| 2026-05-07 15:54 | 55.00988 | -1.50771 | 3093 ft | 192 kts | 17° |
| 2026-05-07 15:55 | 55.02269 | -1.50009 | 2884 ft | 191 kts | 18° |
| 2026-05-07 15:55 | 55.03553 | -1.49252 | 2680 ft | 191 kts | 18° |
| 2026-05-07 15:55 | 55.04801 | -1.48498 | 2459 ft | 188 kts | 18° |
| 2026-05-07 15:55 | 55.06076 | -1.47842 | 2225 ft | 184 kts | 3° |
| 2026-05-07 15:56 | 55.07322 | -1.48111 | 2062 ft | 184 kts | 330° |
| 2026-05-07 15:56 | 55.08198 | -1.49563 | 1992 ft | 165 kts | 289° |
| 2026-05-07 15:56 | 55.08341 | -1.51489 | 2006 ft | 153 kts | 258° |
| 2026-05-07 15:56 | 55.08004 | -1.53175 | 2018 ft | 144 kts | 244° |
| 2026-05-07 15:57 | 55.07554 | -1.54790 | 1844 ft | 147 kts | 242° |
| 2026-05-07 15:57 | 55.07113 | -1.56407 | 1679 ft | 145 kts | 244° |
| 2026-05-07 15:57 | 55.06683 | -1.58000 | 1483 ft | 146 kts | 242° |
| 2026-05-07 15:57 | 55.06262 | -1.59617 | 1304 ft | 145 kts | 245° |
| 2026-05-07 15:58 | 55.05837 | -1.61257 | 1106 ft | 145 kts | 244° |
| 2026-05-07 15:58 | 55.05418 | -1.62853 | 899 ft | 145 kts | 243° |
| 2026-05-07 15:58 | 55.04985 | -1.64477 | 699 ft | 146 kts | 243° |
| 2026-05-07 15:58 | 55.04559 | -1.66092 | 503 ft | 146 kts | 244° |
| 2026-05-07 15:59 | 55.04126 | -1.67721 | 309 ft | 144 kts | 244° |
| 2026-05-07 15:59 | 55.03754 | -1.69132 | 275 ft | 91 kts | 243° |
| 2026-05-07 15:59 | 55.03594 | -1.69727 | 275 ft | 27 kts | 248° |
| 2026-05-07 15:59 | 55.03584 | -1.69986 | 275 ft | 16 kts | 275° |
| 2026-05-07 16:00 | 55.03592 | -1.70151 | 275 ft | 10 kts | 274° |
| 2026-05-07 16:00 | 55.03596 | -1.70256 | 275 ft | 8 kts | 274° |
| 2026-05-07 16:00 | 55.03601 | -1.70362 | 275 ft | 8 kts | 275° |
| 2026-05-07 16:00 | 55.03617 | -1.70434 | 275 ft | 4 kts | 321° |
| 2026-05-07 16:01 | 55.03654 | -1.70441 | 275 ft | 7 kts | 5° |
| 2026-05-07 16:01 | 55.03714 | -1.70432 | 275 ft | 9 kts | 5° |
| 2026-05-07 16:01 | 55.03786 | -1.70415 | 275 ft | 11 kts | 14° |
| 2026-05-07 16:01 | 55.03853 | -1.70391 | 275 ft | 7 kts | 5° |
| 2026-05-07 16:02 | 55.03894 | -1.70388 | 275 ft | 5 kts | 343° |
| 2026-05-07 16:02 | 55.03910 | -1.70443 | 275 ft | 5 kts | 275° |
| 2026-05-07 16:02 | 55.03912 | -1.70497 | 275 ft | 3 kts | 274° |
| 2026-05-07 16:02 | 55.03913 | -1.70530 | 275 ft | 1 kts | 274° |
| 2026-05-07 16:03 | 55.03914 | -1.70536 | 275 ft | 0 kts | 274° |